Time;durP1;ratioP1;P1;durP2;ratioP2;P2;SDS_P1;SDS_P2;PMS_P1;PMS_P2;Temp;Humidity;BMP_temperature;BMP_pressure;BME280_temperature;BME280_humidity;BME280_pressure;Samples;Min_cycle;Max_cycle;Signal;HPM_P1;HPM_P2
2021/05/20 00:02:08;;;;;;;1.63;0.90;;;;;;;;;;5051837;28;20025;-80
2021/05/20 00:04:33;;;;;;;2.53;0.90;;;;;;;;;;5059723;28;20568;-80
2021/05/20 00:06:59;;;;;;;2.03;1.02;;;;;;;;;;5055427;28;20033;-81
2021/05/20 00:09:24;;;;;;;2.72;1.40;;;;;;;;;;5051533;28;20032;-79
2021/05/20 00:11:49;;;;;;;1.17;0.90;;;;;;;;;;5055819;28;20034;-80
2021/05/20 00:14:15;;;;;;;1.48;1.00;;;;;;;;;;5048412;28;20034;-80
2021/05/20 00:16:40;;;;;;;1.90;1.00;;;;;;;;;;5057189;28;20045;-81
2021/05/20 00:19:07;;;;;;;1.70;1.08;;;;;;;;;;5036002;28;20047;-80
2021/05/20 00:21:32;;;;;;;1.63;1.08;;;;;;;;;;5055893;28;20094;-79
2021/05/20 00:23:57;;;;;;;3.67;1.23;;;;;;;;;;5048637;28;20033;-80
2021/05/20 00:26:23;;;;;;;1.13;0.90;;;;;;;;;;5055664;28;20037;-80
2021/05/20 00:28:48;;;;;;;1.80;1.10;;;;;;;;;;5054272;28;20029;-81
2021/05/20 00:31:14;;;;;;;1.20;0.95;;;;;;;;;;5053062;28;20331;-80
2021/05/20 00:33:39;;;;;;;2.78;1.00;;;;;;;;;;5059644;28;20076;-80
2021/05/20 00:36:05;;;;;;;1.67;1.10;;;;;;;;;;5049688;28;20453;-80
2021/05/20 00:38:30;;;;;;;1.55;1.00;;;;;;;;;;5061241;28;20070;-79
2021/05/20 00:40:59;;;;;;;1.10;0.82;;;;;;;;;;5062841;28;20387;-79
2021/05/20 00:43:25;;;;;;;1.85;1.05;;;;;;;;;;5055742;28;20112;-79
2021/05/20 00:45:50;;;;;;;1.88;1.25;;;;;;;;;;5059811;28;20028;-79
2021/05/20 00:48:15;;;;;;;2.10;1.10;;;;;;;;;;5053704;28;20100;-79
2021/05/20 00:50:40;;;;;;;1.67;1.05;;;;;;;;;;5055181;28;20388;-80
2021/05/20 00:53:05;;;;;;;2.67;1.35;;;;;;;;;;5051425;28;20435;-80
2021/05/20 00:55:33;;;;;;;2.67;0.90;;;;;;;;;;5051239;28;20059;-81
2021/05/20 00:57:59;;;;;;;2.67;1.15;;;;;;;;;;5058149;28;20028;-80
2021/05/20 01:00:25;;;;;;;1.88;0.95;;;;;;;;;;5053015;28;20387;-80
2021/05/20 01:02:50;;;;;;;2.85;1.38;;;;;;;;;;5055848;28;20024;-81
2021/05/20 01:05:15;;;;;;;3.75;1.30;;;;;;;;;;5057081;28;20020;-80
2021/05/20 01:07:40;;;;;;;2.88;1.50;;;;;;;;;;5058205;28;20429;-79
2021/05/20 01:10:07;;;;;;;2.33;1.23;;;;;;;;;;5057744;28;20468;-79
2021/05/20 01:12:33;;;;;;;2.05;1.20;;;;;;;;;;5057060;28;20047;-82
2021/05/20 01:14:58;;;;;;;1.88;1.20;;;;;;;;;;5060387;28;20021;-80
2021/05/20 01:17:25;;;;;;;2.10;1.08;;;;;;;;;;5051597;28;20082;-79
2021/05/20 01:19:51;;;;;;;4.18;1.10;;;;;;;;;;5049031;28;20024;-80
2021/05/20 01:22:16;;;;;;;1.73;1.20;;;;;;;;;;5051507;28;20134;-79
2021/05/20 01:24:42;;;;;;;2.78;1.20;;;;;;;;;;5055414;28;20025;-79
2021/05/20 01:27:08;;;;;;;1.73;1.00;;;;;;;;;;5058717;28;20116;-80
2021/05/20 01:29:34;;;;;;;1.50;1.10;;;;;;;;;;5055393;28;20028;-81
2021/05/20 01:31:59;;;;;;;1.23;0.90;;;;;;;;;;5063281;28;20024;-79
2021/05/20 01:34:24;;;;;;;2.63;0.98;;;;;;;;;;5058385;28;20364;-79
2021/05/20 01:36:50;;;;;;;6.88;1.40;;;;;;;;;;5057733;28;20044;-81
2021/05/20 01:39:15;;;;;;;3.03;1.10;;;;;;;;;;5052849;28;20102;-80
2021/05/20 01:41:40;;;;;;;2.40;0.80;;;;;;;;;;5056196;28;20033;-80
2021/05/20 01:44:05;;;;;;;2.75;0.90;;;;;;;;;;5054597;28;20036;-81
2021/05/20 01:46:30;;;;;;;1.50;1.00;;;;;;;;;;5052129;28;20028;-79
2021/05/20 01:48:56;;;;;;;2.20;1.00;;;;;;;;;;5059535;28;20021;-80
2021/05/20 01:51:22;;;;;;;1.65;0.90;;;;;;;;;;5051828;28;20043;-80
2021/05/20 01:53:48;;;;;;;1.67;0.88;;;;;;;;;;5051181;28;20102;-80
2021/05/20 01:56:14;;;;;;;1.60;1.00;;;;;;;;;;5059337;28;20039;-80
2021/05/20 01:58:39;;;;;;;1.42;0.90;;;;;;;;;;5055756;28;20020;-79
2021/05/20 02:01:05;;;;;;;2.67;1.08;;;;;;;;;;5055284;28;20020;-80
2021/05/20 02:03:30;;;;;;;2.08;1.08;;;;;;;;;;5052838;28;20024;-80
2021/05/20 02:06:01;;;;;;;2.20;0.90;;;;;;;;;;5059793;28;20523;-79
2021/05/20 02:08:26;;;;;;;3.42;0.80;;;;;;;;;;5070810;28;20051;-79
2021/05/20 02:10:52;;;;;;;1.63;0.88;;;;;;;;;;5059129;28;20029;-80
2021/05/20 02:13:17;;;;;;;1.60;1.00;;;;;;;;;;5057740;28;20473;-80
2021/05/20 02:15:42;;;;;;;3.33;0.93;;;;;;;;;;5060253;28;20555;-80
2021/05/20 02:18:08;;;;;;;1.80;0.77;;;;;;;;;;5058066;28;20103;-80
2021/05/20 02:20:34;;;;;;;1.80;0.82;;;;;;;;;;5049675;28;20534;-80
2021/05/20 02:23:00;;;;;;;1.20;0.80;;;;;;;;;;5052295;28;20024;-80
2021/05/20 02:25:25;;;;;;;2.45;1.13;;;;;;;;;;5065478;28;20017;-79
2021/05/20 02:27:50;;;;;;;1.85;0.98;;;;;;;;;;5071246;28;20081;-77
2021/05/20 02:30:17;;;;;;;1.85;0.80;;;;;;;;;;5052421;28;20028;-79
2021/05/20 02:32:42;;;;;;;1.98;0.90;;;;;;;;;;5054761;28;20041;-80
2021/05/20 02:35:08;;;;;;;1.30;0.77;;;;;;;;;;5055432;28;20127;-80
2021/05/20 02:37:34;;;;;;;1.33;0.70;;;;;;;;;;5070719;28;20043;-80
2021/05/20 02:39:59;;;;;;;2.20;1.08;;;;;;;;;;5057377;28;20017;-80
2021/05/20 02:42:24;;;;;;;1.70;0.90;;;;;;;;;;5058428;28;20476;-79
2021/05/20 02:44:49;;;;;;;1.85;0.90;;;;;;;;;;5048815;28;20025;-80
2021/05/20 02:47:14;;;;;;;1.75;0.68;;;;;;;;;;5054536;28;20021;-82
2021/05/20 02:49:40;;;;;;;1.52;0.90;;;;;;;;;;5050523;28;20028;-80
2021/05/20 02:52:05;;;;;;;1.52;0.82;;;;;;;;;;5051697;28;20033;-80
2021/05/20 02:54:30;;;;;;;1.15;0.90;;;;;;;;;;5048800;28;20028;-81
2021/05/20 02:56:55;;;;;;;1.63;0.85;;;;;;;;;;5051153;28;20112;-78
2021/05/20 02:59:20;;;;;;;1.45;0.90;;;;;;;;;;5049740;28;20410;-81
2021/05/20 03:01:47;;;;;;;1.38;1.00;;;;;;;;;;5057726;28;20060;-79
2021/05/20 03:04:12;;;;;;;2.42;0.88;;;;;;;;;;5051006;28;20100;-80
2021/05/20 03:06:41;;;;;;;3.20;0.60;;;;;;;;;;5049614;28;20557;-78
2021/05/20 03:09:07;;;;;;;2.13;0.80;;;;;;;;;;5042901;28;20375;-79
2021/05/20 03:11:33;;;;;;;1.17;0.73;;;;;;;;;;5043404;28;20480;-79
2021/05/20 03:13:58;;;;;;;2.40;0.80;;;;;;;;;;5058846;28;20032;-79
2021/05/20 03:16:23;;;;;;;1.85;0.77;;;;;;;;;;5056845;28;20043;-79
2021/05/20 03:18:49;;;;;;;1.10;0.70;;;;;;;;;;5057699;28;20066;-78
2021/05/20 03:21:14;;;;;;;0.95;0.70;;;;;;;;;;5063535;28;20093;-81
2021/05/20 03:23:39;;;;;;;1.55;0.80;;;;;;;;;;5055232;28;20055;-80
2021/05/20 03:26:04;;;;;;;1.50;0.90;;;;;;;;;;5052905;28;20083;-80
2021/05/20 03:28:30;;;;;;;1.85;1.00;;;;;;;;;;5051839;28;20383;-80
2021/05/20 03:30:55;;;;;;;2.33;0.80;;;;;;;;;;5051500;28;20032;-79
2021/05/20 03:33:20;;;;;;;2.63;1.02;;;;;;;;;;5049147;28;20381;-80
2021/05/20 03:35:46;;;;;;;2.20;0.95;;;;;;;;;;5048507;28;20021;-80
2021/05/20 03:38:11;;;;;;;1.38;0.73;;;;;;;;;;5050188;28;20119;-79
2021/05/20 03:40:36;;;;;;;2.08;0.60;;;;;;;;;;5054906;28;20029;-80
2021/05/20 03:43:01;;;;;;;1.38;0.80;;;;;;;;;;5057468;28;20020;-82
2021/05/20 03:45:27;;;;;;;1.00;0.70;;;;;;;;;;5035206;28;20523;-79
2021/05/20 03:47:52;;;;;;;2.20;1.15;;;;;;;;;;5049543;28;20025;-80
2021/05/20 03:50:17;;;;;;;2.28;0.90;;;;;;;;;;5057427;28;20083;-78
2021/05/20 03:52:42;;;;;;;1.15;0.77;;;;;;;;;;5050558;28;20025;-79
2021/05/20 03:55:08;;;;;;;1.73;0.88;;;;;;;;;;5048966;28;20036;-80
2021/05/20 03:57:33;;;;;;;1.58;0.80;;;;;;;;;;5053245;28;20116;-81
2021/05/20 03:59:58;;;;;;;1.98;1.58;;;;;;;;;;5049000;28;20071;-80
2021/05/20 04:02:23;;;;;;;1.23;0.80;;;;;;;;;;5051926;28;20028;-80
2021/05/20 04:04:48;;;;;;;1.88;0.90;;;;;;;;;;5054374;28;20099;-81
2021/05/20 04:07:14;;;;;;;1.38;0.80;;;;;;;;;;5048837;28;20074;-81
2021/05/20 04:09:39;;;;;;;1.25;0.75;;;;;;;;;;5056307;28;20481;-79
2021/05/20 04:12:04;;;;;;;1.88;1.17;;;;;;;;;;5056371;28;20221;-80
2021/05/20 04:14:29;;;;;;;2.75;0.55;;;;;;;;;;5065885;28;20050;-80
2021/05/20 04:16:55;;;;;;;4.00;0.90;;;;;;;;;;5057608;28;20032;-80
2021/05/20 04:19:20;;;;;;;0.98;0.70;;;;;;;;;;5063039;28;20028;-79
2021/05/20 04:21:45;;;;;;;1.38;0.60;;;;;;;;;;5065001;28;20896;-79
2021/05/20 04:24:10;;;;;;;0.73;0.60;;;;;;;;;;5051149;28;20033;-79
2021/05/20 04:26:35;;;;;;;2.97;0.98;;;;;;;;;;5044512;28;20021;-79
2021/05/20 04:29:01;;;;;;;3.42;0.98;;;;;;;;;;5054817;28;20429;-78
2021/05/20 04:31:26;;;;;;;2.20;1.05;;;;;;;;;;5048845;28;20027;-80
2021/05/20 04:33:51;;;;;;;1.65;1.02;;;;;;;;;;5030120;28;20120;-82
2021/05/20 04:36:16;;;;;;;4.30;1.30;;;;;;;;;;5040163;28;20091;-80
2021/05/20 04:38:41;;;;;;;2.33;1.00;;;;;;;;;;5040250;28;20447;-81
2021/05/20 04:41:07;;;;;;;2.10;0.95;;;;;;;;;;5041409;28;20029;-81
2021/05/20 04:43:32;;;;;;;2.60;1.10;;;;;;;;;;5045966;28;20057;-80
2021/05/20 04:45:57;;;;;;;2.00;1.20;;;;;;;;;;5033970;28;20060;-80
2021/05/20 04:48:22;;;;;;;1.90;0.95;;;;;;;;;;5032836;28;20120;-79
2021/05/20 04:50:47;;;;;;;2.08;1.30;;;;;;;;;;5041213;28;20432;-80
2021/05/20 04:53:13;;;;;;;4.90;1.33;;;;;;;;;;5043423;28;20033;-80
2021/05/20 04:55:38;;;;;;;2.00;1.30;;;;;;;;;;5035973;28;20391;-78
2021/05/20 04:58:03;;;;;;;2.92;1.20;;;;;;;;;;5037261;28;20126;-81
2021/05/20 05:00:28;;;;;;;1.77;1.08;;;;;;;;;;5036385;28;20485;-80
2021/05/20 05:02:54;;;;;;;2.00;1.00;;;;;;;;;;5034917;28;20038;-79
2021/05/20 05:05:19;;;;;;;3.90;1.30;;;;;;;;;;5051443;28;20227;-81
2021/05/20 05:07:44;;;;;;;1.70;1.13;;;;;;;;;;5052420;28;20415;-81
2021/05/20 05:10:10;;;;;;;2.65;1.20;;;;;;;;;;5046762;28;20094;-79
2021/05/20 05:12:35;;;;;;;2.15;1.20;;;;;;;;;;5033347;28;20029;-80
2021/05/20 05:15:00;;;;;;;2.92;1.30;;;;;;;;;;5025849;28;20491;-80
2021/05/20 05:17:26;;;;;;;2.70;1.50;;;;;;;;;;5024681;28;20029;-80
2021/05/20 05:19:51;;;;;;;3.20;1.48;;;;;;;;;;5026348;28;20634;-80
2021/05/20 05:22:16;;;;;;;3.53;1.40;;;;;;;;;;5039850;28;20053;-81
2021/05/20 05:24:41;;;;;;;2.45;1.50;;;;;;;;;;5038515;28;20025;-81
2021/05/20 05:27:07;;;;;;;2.25;1.38;;;;;;;;;;5034090;28;20346;-80
2021/05/20 05:29:33;;;;;;;4.05;1.40;;;;;;;;;;5036616;28;20064;-81
2021/05/20 05:31:59;;;;;;;3.25;1.20;;;;;;;;;;5033377;28;20058;-80
2021/05/20 05:34:24;;;;;;;2.55;1.30;;;;;;;;;;5056988;28;20044;-79
2021/05/20 05:36:49;;;;;;;1.92;1.35;;;;;;;;;;5057649;28;20040;-79
2021/05/20 05:39:14;;;;;;;2.90;1.15;;;;;;;;;;5061122;28;20107;-79
2021/05/20 05:41:40;;;;;;;3.78;1.27;;;;;;;;;;5063507;28;20490;-79
2021/05/20 05:44:05;;;;;;;2.17;1.10;;;;;;;;;;5053467;28;20033;-80
2021/05/20 05:46:30;;;;;;;2.20;0.90;;;;;;;;;;5061859;28;20032;-79
2021/05/20 05:48:58;;;;;;;2.50;0.90;;;;;;;;;;5035999;28;20104;-80
2021/05/20 05:51:25;;;;;;;2.15;0.95;;;;;;;;;;5058115;28;20022;-79
2021/05/20 05:53:51;;;;;;;1.88;1.17;;;;;;;;;;5060325;28;20548;-79
2021/05/20 05:56:16;;;;;;;1.70;1.20;;;;;;;;;;5064635;28;20085;-79
2021/05/20 05:58:41;;;;;;;2.25;1.17;;;;;;;;;;5052409;28;20032;-81
2021/05/20 06:01:06;;;;;;;3.50;1.30;;;;;;;;;;5052202;28;20021;-81
2021/05/20 06:03:32;;;;;;;1.63;1.27;;;;;;;;;;5049731;28;20048;-80
2021/05/20 06:05:57;;;;;;;2.00;1.15;;;;;;;;;;5065134;28;20032;-80
2021/05/20 06:08:22;;;;;;;1.70;1.10;;;;;;;;;;5063480;28;20017;-80
2021/05/20 06:10:48;;;;;;;1.50;1.05;;;;;;;;;;5071189;28;20020;-81
2021/05/20 06:13:13;;;;;;;2.80;1.27;;;;;;;;;;5057470;28;20017;-80
2021/05/20 06:15:39;;;;;;;1.52;1.05;;;;;;;;;;5049631;28;20383;-80
2021/05/20 06:18:04;;;;;;;3.65;1.40;;;;;;;;;;5070725;28;20383;-80
2021/05/20 06:20:29;;;;;;;2.33;1.20;;;;;;;;;;5043319;28;20605;-80
2021/05/20 06:22:54;;;;;;;3.38;1.30;;;;;;;;;;5060541;28;20120;-80
2021/05/20 06:25:20;;;;;;;1.83;1.25;;;;;;;;;;5034635;28;20060;-77
2021/05/20 06:27:45;;;;;;;2.75;1.20;;;;;;;;;;5059857;28;20025;-78
2021/05/20 06:30:11;;;;;;;2.63;1.30;;;;;;;;;;5059781;28;20032;-76
2021/05/20 06:32:36;;;;;;;1.98;1.20;;;;;;;;;;5057404;28;20047;-77
2021/05/20 06:35:02;;;;;;;3.65;1.50;;;;;;;;;;5050746;28;20458;-77
2021/05/20 06:37:28;;;;;;;2.25;1.10;;;;;;;;;;5052778;28;20035;-76
2021/05/20 06:39:53;;;;;;;1.83;1.23;;;;;;;;;;5051104;28;20120;-77
2021/05/20 06:42:18;;;;;;;2.70;1.30;;;;;;;;;;5051305;28;20480;-76
2021/05/20 06:44:43;;;;;;;2.35;1.30;;;;;;;;;;5056031;28;20107;-77
2021/05/20 06:47:08;;;;;;;2.53;1.20;;;;;;;;;;5058070;28;20108;-77
2021/05/20 06:49:34;;;;;;;2.15;1.40;;;;;;;;;;5058032;28;20472;-76
2021/05/20 06:51:59;;;;;;;2.60;1.10;;;;;;;;;;5059559;28;20025;-77
2021/05/20 06:54:24;;;;;;;2.30;1.27;;;;;;;;;;5049007;28;20154;-73
2021/05/20 06:56:57;;;;;;;2.92;1.10;;;;;;;;;;5052764;28;20040;-74
2021/05/20 07:02:07;;;;;;;1.20;0.95;;;;;;;;;;5051489;28;20047;-76
2021/05/20 07:04:32;;;;;;;2.30;1.30;;;;;;;;;;5061325;28;20037;-77
2021/05/20 07:07:02;;;;;;;3.30;1.20;;;;;;;;;;5055328;28;20583;-74
2021/05/20 07:09:33;;;;;;;4.82;1.27;;;;;;;;;;5035321;28;20229;-73
2021/05/20 07:11:58;;;;;;;2.15;1.25;;;;;;;;;;5053267;28;20028;-74
2021/05/20 07:14:23;;;;;;;3.55;1.42;;;;;;;;;;5056403;28;20108;-77
2021/05/20 07:16:50;;;;;;;1.83;1.00;;;;;;;;;;5065074;28;20510;-75
2021/05/20 07:19:15;;;;;;;1.80;1.20;;;;;;;;;;5049476;28;20058;-75
2021/05/20 07:21:40;;;;;;;1.70;1.00;;;;;;;;;;5061896;28;20119;-75
2021/05/20 07:24:05;;;;;;;1.55;0.90;;;;;;;;;;5060464;28;20318;-75
2021/05/20 07:26:31;;;;;;;1.55;0.90;;;;;;;;;;5054263;28;20110;-75
2021/05/20 07:28:56;;;;;;;2.90;0.98;;;;;;;;;;5051733;28;20094;-75
2021/05/20 07:31:21;;;;;;;1.83;1.08;;;;;;;;;;5046474;28;20104;-76
2021/05/20 07:33:46;;;;;;;3.33;1.00;;;;;;;;;;5053071;28;20483;-75
2021/05/20 07:36:11;;;;;;;2.08;1.00;;;;;;;;;;5062186;28;20028;-74
2021/05/20 07:38:39;;;;;;;2.60;1.20;;;;;;;;;;5065260;28;20545;-75
2021/05/20 07:41:04;;;;;;;1.67;1.00;;;;;;;;;;5068735;28;20116;-73
2021/05/20 07:43:29;;;;;;;1.73;0.90;;;;;;;;;;5060163;28;20013;-75
2021/05/20 07:45:54;;;;;;;1.50;0.90;;;;;;;;;;5057917;28;20060;-74
2021/05/20 07:48:19;;;;;;;2.67;0.85;;;;;;;;;;5060621;28;20415;-75
2021/05/20 07:50:45;;;;;;;2.85;0.80;;;;;;;;;;5047981;28;20031;-75
2021/05/20 07:53:10;;;;;;;1.10;0.70;;;;;;;;;;5049463;28;20063;-74
2021/05/20 07:55:36;;;;;;;1.35;0.90;;;;;;;;;;5049625;28;20355;-73
2021/05/20 07:58:01;;;;;;;1.95;0.88;;;;;;;;;;5062592;28;20033;-74
2021/05/20 08:00:28;;;;;;;2.05;0.82;;;;;;;;;;5057680;28;20027;-73
2021/05/20 08:03:03;;;;;;;1.75;0.70;;;;;;;;;;5062560;28;20685;-75
2021/05/20 08:05:51;;;;;;;1.33;0.90;;;;;;;;;;5049268;28;20817;-75
2021/05/20 08:08:23;;;;;;;1.20;0.90;;;;;;;;;;5051629;28;20025;-73
2021/05/20 08:11:04;;;;;;;2.03;0.85;;;;;;;;;;5048389;28;20479;-73
2021/05/20 08:13:33;;;;;;;2.05;0.82;;;;;;;;;;5049059;28;20048;-74
2021/05/20 08:15:59;;;;;;;2.42;0.80;;;;;;;;;;5062242;28;20031;-75
2021/05/20 08:18:25;;;;;;;2.60;1.15;;;;;;;;;;5053820;28;20411;-73
2021/05/20 08:20:50;;;;;;;2.03;0.90;;;;;;;;;;5063355;28;20028;-74
2021/05/20 08:23:15;;;;;;;1.92;0.80;;;;;;;;;;5053579;28;20167;-73
2021/05/20 08:25:41;;;;;;;1.35;0.90;;;;;;;;;;5053556;28;20025;-75
2021/05/20 08:28:06;;;;;;;1.75;0.70;;;;;;;;;;5048747;28;20017;-73
2021/05/20 08:30:31;;;;;;;2.00;0.98;;;;;;;;;;5065164;28;20048;-74
2021/05/20 08:32:56;;;;;;;1.70;1.02;;;;;;;;;;5056619;28;20044;-75
2021/05/20 08:35:25;;;;;;;1.55;0.90;;;;;;;;;;5054030;28;20098;-77
2021/05/20 08:37:50;;;;;;;1.67;0.75;;;;;;;;;;5061622;28;20117;-73
2021/05/20 08:40:15;;;;;;;2.40;0.82;;;;;;;;;;5053102;28;20147;-76
2021/05/20 08:42:41;;;;;;;1.23;0.85;;;;;;;;;;5060827;28;20388;-75
2021/05/20 08:45:11;;;;;;;1.60;1.00;;;;;;;;;;5048584;28;20017;-73
2021/05/20 08:47:37;;;;;;;1.27;0.77;;;;;;;;;;5030881;28;20021;-73
2021/05/20 08:50:02;;;;;;;1.55;0.90;;;;;;;;;;5050224;28;20013;-73
2021/05/20 08:52:28;;;;;;;1.42;0.50;;;;;;;;;;5067674;28;20107;-74
2021/05/20 08:54:53;;;;;;;0.77;0.63;;;;;;;;;;5051899;28;20476;-74
2021/05/20 08:57:22;;;;;;;1.33;0.80;;;;;;;;;;5049001;28;20372;-74
2021/05/20 08:59:47;;;;;;;1.58;0.80;;;;;;;;;;5067181;28;20031;-74
2021/05/20 09:02:26;;;;;;;2.10;0.95;;;;;;;;;;5055357;28;20104;-74
2021/05/20 09:04:58;;;;;;;1.00;0.70;;;;;;;;;;5059972;28;20033;-74
2021/05/20 09:07:31;;;;;;;0.28;0.28;;;;;;;;;;5048637;28;20129;-75
2021/05/20 09:10:08;;;;;;;1.38;0.47;;;;;;;;;;5048792;28;20081;-75
2021/05/20 09:12:33;;;;;;;0.35;0.35;;;;;;;;;;5059284;28;20051;-75
2021/05/20 09:14:58;;;;;;;0.60;0.60;;;;;;;;;;5058189;28;20029;-74
2021/05/20 09:17:23;;;;;;;1.45;0.50;;;;;;;;;;5058313;28;20399;-75
2021/05/20 09:19:58;;;;;;;1.55;0.60;;;;;;;;;;5062236;28;20029;-74
2021/05/20 09:22:24;;;;;;;1.70;0.50;;;;;;;;;;5062701;28;20069;-73
2021/05/20 09:24:53;;;;;;;1.98;0.55;;;;;;;;;;5058413;28;20469;-74
2021/05/20 09:27:38;;;;;;;0.90;0.50;;;;;;;;;;5053470;28;20032;-75
2021/05/20 09:30:17;;;;;;;2.75;0.60;;;;;;;;;;5052327;28;20029;-74
2021/05/20 09:32:56;;;;;;;0.80;0.50;;;;;;;;;;5051898;28;20116;-75
2021/05/20 09:35:23;;;;;;;1.42;0.50;;;;;;;;;;5069504;28;20447;-74
2021/05/20 09:37:49;;;;;;;2.63;0.88;;;;;;;;;;5050528;28;20384;-74
2021/05/20 09:40:16;;;;;;;1.10;0.60;;;;;;;;;;5064562;28;20017;-76
2021/05/20 09:42:42;;;;;;;1.63;0.60;;;;;;;;;;5069678;28;20039;-74
2021/05/20 09:45:08;;;;;;;1.08;0.80;;;;;;;;;;5052294;28;20021;-75
2021/05/20 09:47:34;;;;;;;1.50;0.80;;;;;;;;;;5051491;28;20025;-74
2021/05/20 09:50:00;;;;;;;0.63;0.52;;;;;;;;;;5052533;28;20032;-75
2021/05/20 09:52:27;;;;;;;0.85;0.57;;;;;;;;;;5052307;28;20048;-74
2021/05/20 09:54:52;;;;;;;1.58;0.40;;;;;;;;;;5056484;28;20013;-74
2021/05/20 09:57:28;;;;;;;0.68;0.40;;;;;;;;;;5051625;28;20502;-75
2021/05/20 10:00:09;;;;;;;1.23;0.50;;;;;;;;;;5048087;28;20025;-75
2021/05/20 10:02:35;;;;;;;1.33;0.47;;;;;;;;;;5061193;28;20136;-75
2021/05/20 10:05:18;;;;;;;0.70;0.63;;;;;;;;;;5071334;28;20095;-74
2021/05/20 10:07:43;;;;;;;1.08;0.50;;;;;;;;;;5070615;28;20028;-75
2021/05/20 10:10:09;;;;;;;1.20;0.63;;;;;;;;;;5058970;28;20052;-75
2021/05/20 10:12:35;;;;;;;3.55;0.65;;;;;;;;;;5069055;28;20390;-75
2021/05/20 10:15:00;;;;;;;1.05;0.50;;;;;;;;;;5061301;28;20032;-75
2021/05/20 10:17:26;;;;;;;0.95;0.40;;;;;;;;;;5065981;28;20040;-74
2021/05/20 10:19:51;;;;;;;0.30;0.30;;;;;;;;;;5068797;28;20021;-76
2021/05/20 10:22:17;;;;;;;0.45;0.38;;;;;;;;;;5061427;28;20057;-74
2021/05/20 10:24:42;;;;;;;0.57;0.50;;;;;;;;;;5050327;28;20099;-74
2021/05/20 10:27:09;;;;;;;1.15;0.50;;;;;;;;;;5057839;28;20025;-75
2021/05/20 10:29:35;;;;;;;0.52;0.32;;;;;;;;;;5063357;28;20036;-76
2021/05/20 10:32:00;;;;;;;0.60;0.40;;;;;;;;;;5047588;28;20119;-75
2021/05/20 10:34:25;;;;;;;0.65;0.40;;;;;;;;;;5056156;28;20825;-76
2021/05/20 10:36:58;;;;;;;0.22;0.22;;;;;;;;;;5051065;28;20048;-75
2021/05/20 10:39:23;;;;;;;0.30;0.30;;;;;;;;;;5051175;28;20025;-75
2021/05/20 10:41:49;;;;;;;2.15;0.68;;;;;;;;;;5050808;28;20486;-75
2021/05/20 10:44:16;;;;;;;1.85;0.50;;;;;;;;;;5056622;28;20036;-75
2021/05/20 10:47:08;;;;;;;1.52;0.35;;;;;;;;;;5058489;28;20032;-75
2021/05/20 10:49:55;;;;;;;0.28;0.28;;;;;;;;;;5052690;28;20029;-75
2021/05/20 10:52:37;;;;;;;1.13;0.28;;;;;;;;;;5062507;28;20051;-74
2021/05/20 10:55:04;;;;;;;0.32;0.20;;;;;;;;;;5042502;28;20096;-75
2021/05/20 10:57:47;;;;;;;0.38;0.20;;;;;;;;;;5062935;28;20387;-76
2021/05/20 11:00:31;;;;;;;0.20;0.20;;;;;;;;;;5069311;28;20126;-75
2021/05/20 11:02:58;;;;;;;0.63;0.20;;;;;;;;;;5057033;28;20067;-74
2021/05/20 11:05:42;;;;;;;0.52;0.30;;;;;;;;;;5055301;28;21024;-75
2021/05/20 11:08:08;;;;;;;0.45;0.20;;;;;;;;;;5069113;28;20017;-74
2021/05/20 11:10:39;;;;;;;0.55;0.35;;;;;;;;;;5068691;28;20094;-74
2021/05/20 11:13:04;;;;;;;1.65;0.63;;;;;;;;;;5031863;28;20051;-75
2021/05/20 11:15:30;;;;;;;0.93;0.40;;;;;;;;;;5069142;28;20032;-74
2021/05/20 11:17:55;;;;;;;1.35;0.30;;;;;;;;;;5068982;28;20036;-74
2021/05/20 11:20:23;;;;;;;0.38;0.30;;;;;;;;;;5062813;28;20016;-74
2021/05/20 11:23:07;;;;;;;0.68;0.20;;;;;;;;;;5054980;28;20067;-73
2021/05/20 11:25:32;;;;;;;0.20;0.20;;;;;;;;;;5045117;28;20033;-76
2021/05/20 11:27:59;;;;;;;0.30;0.20;;;;;;;;;;5051003;28;20025;-73
2021/05/20 11:30:24;;;;;;;1.50;0.20;;;;;;;;;;5068507;28;20365;-74
2021/05/20 11:32:53;;;;;;;0.35;0.22;;;;;;;;;;5068802;28;20097;-75
2021/05/20 11:37:59;;;;;;;1.13;0.30;;;;;;;;;;5058660;28;20403;-75
2021/05/20 11:40:25;;;;;;;1.58;0.50;;;;;;;;;;5068126;28;20027;-74
2021/05/20 11:42:50;;;;;;;0.35;0.30;;;;;;;;;;5066813;28;20071;-74
2021/05/20 11:45:22;;;;;;;1.10;0.45;;;;;;;;;;5049022;28;20037;-74
2021/05/20 11:47:54;;;;;;;0.88;0.40;;;;;;;;;;5049117;28;20439;-75
2021/05/20 11:50:20;;;;;;;0.70;0.55;;;;;;;;;;5048936;28;20398;-75
2021/05/20 11:52:45;;;;;;;0.70;0.35;;;;;;;;;;5047097;28;20013;-75
2021/05/20 11:55:10;;;;;;;0.75;0.50;;;;;;;;;;5049647;28;20022;-74
2021/05/20 11:57:35;;;;;;;0.68;0.40;;;;;;;;;;5063555;28;20040;-74
2021/05/20 12:00:00;;;;;;;0.73;0.60;;;;;;;;;;5053983;28;20037;-74
2021/05/20 12:02:28;;;;;;;1.48;0.40;;;;;;;;;;5049484;28;20040;-75
2021/05/20 12:05:00;;;;;;;0.45;0.40;;;;;;;;;;5049470;28;20020;-74
2021/05/20 12:07:26;;;;;;;1.10;0.30;;;;;;;;;;5048935;28;20383;-75
2021/05/20 12:09:52;;;;;;;0.25;0.20;;;;;;;;;;5049979;28;20032;-74
2021/05/20 12:12:19;;;;;;;0.20;0.20;;;;;;;;;;5056508;28;20091;-75
2021/05/20 12:14:45;;;;;;;0.30;0.30;;;;;;;;;;5065493;28;20028;-74
2021/05/20 12:17:19;;;;;;;0.40;0.28;;;;;;;;;;5047487;28;20029;-74
2021/05/20 12:19:49;;;;;;;0.22;0.22;;;;;;;;;;5046965;28;20052;-74
2021/05/20 12:22:28;;;;;;;0.10;0.10;;;;;;;;;;5062369;28;20122;-72
2021/05/20 12:24:56;;;;;;;0.20;0.20;;;;;;;;;;5052744;28;20025;-73
2021/05/20 12:27:22;;;;;;;0.75;0.38;;;;;;;;;;5064600;28;20161;-75
2021/05/20 12:29:49;;;;;;;0.47;0.10;;;;;;;;;;5052781;28;20480;-75
2021/05/20 12:32:34;;;;;;;1.92;0.22;;;;;;;;;;5040659;28;20025;-74
2021/05/20 12:35:18;;;;;;;2.10;0.30;;;;;;;;;;5060132;28;20379;-72
2021/05/20 12:37:53;;;;;;;0.22;0.15;;;;;;;;;;5046659;28;20033;-72
2021/05/20 12:40:28;;;;;;;0.32;0.20;;;;;;;;;;5049026;28;20096;-74
2021/05/20 12:43:03;;;;;;;0.55;0.10;;;;;;;;;;5050696;28;20074;-72
2021/05/20 12:45:29;;;;;;;0.50;0.10;;;;;;;;;;5057617;28;20029;-73
2021/05/20 12:47:54;;;;;;;0.28;0.20;;;;;;;;;;5048202;28;20478;-73
2021/05/20 12:50:26;;;;;;;0.43;0.25;;;;;;;;;;5053833;28;20021;-74
2021/05/20 12:52:52;;;;;;;0.10;0.10;;;;;;;;;;5036097;28;20052;-73
2021/05/20 12:55:17;;;;;;;0.45;0.20;;;;;;;;;;5037399;28;20529;-74
2021/05/20 12:57:56;;;;;;;0.70;0.38;;;;;;;;;;5042846;28;20037;-73
2021/05/20 13:00:21;;;;;;;0.82;0.40;;;;;;;;;;5053556;28;20067;-74
2021/05/20 13:02:56;;;;;;;1.17;0.40;;;;;;;;;;5039712;28;20021;-73
2021/05/20 13:05:21;;;;;;;1.23;0.45;;;;;;;;;;5045265;28;20055;-74
2021/05/20 13:07:46;;;;;;;1.38;0.35;;;;;;;;;;5045906;28;20026;-74
2021/05/20 13:10:12;;;;;;;0.57;0.40;;;;;;;;;;5044830;28;20440;-75
2021/05/20 13:12:41;;;;;;;0.45;0.40;;;;;;;;;;5039405;28;20674;-74
2021/05/20 13:15:10;;;;;;;0.30;0.30;;;;;;;;;;5037704;28;20553;-74
2021/05/20 13:22:51;;;;;;;4.18;0.60;;;;;;;;;;5062803;28;20024;-73
2021/05/20 13:25:19;;;;;;;0.60;0.40;;;;;;;;;;5062633;28;20036;-73
2021/05/20 13:27:44;;;;;;;0.52;0.45;;;;;;;;;;5071148;28;20030;-73
2021/05/20 13:30:13;;;;;;;0.80;0.50;;;;;;;;;;5035597;28;20108;-73
2021/05/20 13:32:59;;;;;;;1.15;0.47;;;;;;;;;;5051704;28;20048;-73
2021/05/20 13:35:25;;;;;;;0.45;0.45;;;;;;;;;;5060612;28;20021;-73
2021/05/20 13:37:50;;;;;;;3.03;0.50;;;;;;;;;;5055668;28;20438;-72
2021/05/20 13:40:19;;;;;;;1.08;0.50;;;;;;;;;;5071538;28;20028;-74
2021/05/20 13:42:44;;;;;;;3.55;0.50;;;;;;;;;;5062185;28;20441;-74
2021/05/20 13:45:11;;;;;;;1.10;0.32;;;;;;;;;;5061234;28;20016;-73
2021/05/20 13:47:37;;;;;;;0.93;0.50;;;;;;;;;;5062386;28;20017;-74
2021/05/20 13:50:02;;;;;;;0.90;0.50;;;;;;;;;;5060455;28;20023;-73
2021/05/20 13:52:29;;;;;;;1.33;0.65;;;;;;;;;;5058717;28;20025;-73
2021/05/20 13:54:54;;;;;;;1.50;0.50;;;;;;;;;;5063041;28;20150;-72
2021/05/20 13:57:20;;;;;;;0.93;0.52;;;;;;;;;;5036388;28;20049;-74
2021/05/20 13:59:46;;;;;;;0.75;0.43;;;;;;;;;;5051938;28;20013;-73
2021/05/20 14:02:13;;;;;;;0.50;0.50;;;;;;;;;;5051761;28;20025;-72
2021/05/20 14:04:39;;;;;;;0.70;0.52;;;;;;;;;;5051257;28;20032;-74
2021/05/20 14:07:14;;;;;;;0.82;0.40;;;;;;;;;;5052642;28;20021;-73
2021/05/20 14:09:40;;;;;;;1.80;0.57;;;;;;;;;;5044201;28;20027;-74
2021/05/20 14:12:06;;;;;;;1.35;0.68;;;;;;;;;;5036177;28;20472;-74
2021/05/20 14:14:32;;;;;;;2.40;0.60;;;;;;;;;;5054501;28;20017;-72
2021/05/20 14:16:57;;;;;;;3.45;0.57;;;;;;;;;;5069448;28;20533;-73
2021/05/20 14:19:23;;;;;;;0.95;0.50;;;;;;;;;;5066966;28;20016;-72
2021/05/20 14:21:49;;;;;;;0.98;0.50;;;;;;;;;;5050824;28;20021;-71
2021/05/20 14:24:15;;;;;;;0.45;0.30;;;;;;;;;;5054001;28;20505;-72
2021/05/20 14:26:40;;;;;;;0.20;0.20;;;;;;;;;;5058368;28;20473;-73
2021/05/20 14:29:06;;;;;;;0.40;0.20;;;;;;;;;;5063645;28;20025;-73
2021/05/20 14:31:31;;;;;;;1.27;0.20;;;;;;;;;;5070028;28;20118;-73
2021/05/20 14:33:56;;;;;;;0.50;0.20;;;;;;;;;;5069296;28;20102;-73
2021/05/20 14:36:21;;;;;;;0.45;0.17;;;;;;;;;;5058451;28;20028;-74
2021/05/20 14:38:46;;;;;;;0.30;0.20;;;;;;;;;;5050719;28;20058;-74
2021/05/20 14:41:12;;;;;;;0.30;0.30;;;;;;;;;;5056983;28;20175;-74
2021/05/20 14:43:37;;;;;;;0.08;0.08;;;;;;;;;;5070188;28;20364;-72
2021/05/20 14:46:02;;;;;;;0.60;0.20;;;;;;;;;;5064956;28;20442;-73
2021/05/20 14:48:27;;;;;;;0.20;0.20;;;;;;;;;;5057525;28;20013;-74
2021/05/20 14:51:11;;;;;;;0.45;0.28;;;;;;;;;;5050774;28;20108;-73
2021/05/20 14:53:40;;;;;;;0.40;0.30;;;;;;;;;;5065016;28;20392;-74